Startpagina
METAR-TAF:

METAR-TAF

Vliegvelden :

Koeweit, Koeweit

breedte: 29-13N, lengte: 047-59E, hoogte: 55 m

Actueel weer

Dit bericht is 19 minuten geleden gemaakt, om 13:00 UTC
Wind 9 kt uit het zuidoosten
Temperatuur 40°C
Vochtigheid 32%
Druk 1005 hPa
Zicht: 8000 m

METAR: OKBK 191300Z 14009KT 8000 NSC 40/20 Q1005 NOSIG

Tijdstip: 16:19 (13:19 UTC)

Verwachting

Dit bericht is 2 uur en het 34 minuten geleden gemaakt, om 10:45 UTC
Verwachting geldig van 19 om 12 UTC tot 20 om 18 UTC
Wind 10 kt uit het oostzuidoosten
Zicht: 6000 m
Tijdelijke
van 19 om 18 UTC tot 20 om 04 UTC
Zicht: 2000 m
nevel

TAF: OKBK 191045Z 1912/2018 12010KT 6000 NSC TEMPO 1918/2004 2000 BR

Waarnemingen en weersverwachtingen van meer dan 4000 vliegvelden (METAR en TAF).

De beschikbare stations zijn de gele en rode punten op de kaart.

Ga met uw muis naar het station om de naam te zien.

Klik dan om waarnemingen en weersverwachtingen te zien.

kaart wijzigen: klik op de groene knoppen met een zwart kruis om in te zoomen, op de groene knop met een streepje om uit te zoomen of op de groene pijlen voor aangrenzende kaarten.


METAR-TAF: